createdAt,value
2023-02-06T00:00:10.941Z,64.77
2023-02-06T00:03:14.167Z,63.86
2023-02-06T00:06:17.061Z,64.74
2023-02-06T00:09:19.690Z,63.73
2023-02-06T00:12:22.261Z,63.67
2023-02-06T00:15:25.583Z,62.11
2023-02-06T00:18:29.240Z,61.42
2023-02-06T00:21:32.136Z,62.79
2023-02-06T00:24:34.794Z,62.80
2023-02-06T00:27:38.570Z,62.61
2023-02-06T00:30:41.408Z,62.19
2023-02-06T00:33:44.095Z,62.60
2023-02-06T00:36:46.702Z,64.74
2023-02-06T00:39:50.565Z,61.81
2023-02-06T00:42:53.861Z,63.60
2023-02-06T00:45:57.830Z,61.64
2023-02-06T00:49:03.102Z,61.73
2023-02-06T00:52:06.565Z,61.76
2023-02-06T00:55:09.137Z,62.22
2023-02-06T00:58:13.215Z,61.59
2023-02-06T01:01:19.656Z,62.98
2023-02-06T01:04:22.653Z,62.00
2023-02-06T01:07:25.256Z,62.39
2023-02-06T01:10:29.119Z,64.91
2023-02-06T01:13:32.596Z,64.54
2023-02-06T01:16:35.190Z,64.74
2023-02-06T01:19:39.260Z,64.29
2023-02-06T01:22:41.965Z,63.72
2023-02-06T01:25:45.653Z,62.20
2023-02-06T01:28:50.187Z,62.03
2023-02-06T01:31:52.919Z,61.21
2023-02-06T01:34:56.068Z,62.21
2023-02-06T01:37:58.736Z,61.23
2023-02-06T01:41:02.016Z,61.51
2023-02-06T01:44:22.542Z,61.78
2023-02-06T01:47:25.128Z,60.32
2023-02-06T01:50:30.749Z,63.36
2023-02-06T01:53:35.958Z,62.42
2023-02-06T01:56:44.966Z,59.05
2023-02-06T01:59:52.623Z,59.90
2023-02-06T02:02:55.482Z,59.77
2023-02-06T02:06:01.519Z,58.99
2023-02-06T02:09:07.621Z,59.26
2023-02-06T02:12:11.508Z,62.39
2023-02-06T02:15:14.276Z,62.90
2023-02-06T02:18:25.845Z,59.23
2023-02-06T02:22:05.979Z,58.31
2023-02-06T02:25:32.919Z,58.30
2023-02-06T02:29:06.865Z,57.85
2023-02-06T02:32:19.323Z,58.50
2023-02-06T02:35:31.230Z,63.23
2023-02-06T02:39:13.724Z,66.06
2023-02-06T02:42:27.080Z,60.81
2023-02-06T02:45:48.243Z,62.22
2023-02-06T02:48:54.205Z,61.07
2023-02-06T02:51:59.402Z,63.33
2023-02-06T02:55:15.059Z,60.77
2023-02-06T02:58:26.690Z,59.88
2023-02-06T03:01:52.182Z,63.36
2023-02-06T03:04:59.699Z,61.79
2023-02-06T03:08:22.022Z,59.02
2023-02-06T03:11:25.771Z,58.89
2023-02-06T03:14:43.977Z,59.53
2023-02-06T03:18:03.977Z,59.49
2023-02-06T03:21:11.054Z,60.61
2023-02-06T03:24:17.457Z,60.24
2023-02-06T03:27:23.007Z,59.69
2023-02-06T03:30:30.026Z,63.10
2023-02-06T03:33:39.933Z,62.00
2023-02-06T03:36:42.732Z,59.92
2023-02-06T03:39:45.609Z,62.95
2023-02-06T03:42:53.612Z,62.23
2023-02-06T03:46:03.451Z,60.75
2023-02-06T03:49:10.436Z,62.79
2023-02-06T03:52:19.611Z,60.89
2023-02-06T03:55:24.383Z,62.40
2023-02-06T03:58:27.834Z,60.99
2023-02-06T04:01:30.548Z,61.45
2023-02-06T04:04:39.279Z,62.47
2023-02-06T04:07:43.009Z,61.38
2023-02-06T04:10:46.243Z,60.99
2023-02-06T04:13:48.827Z,61.48
2023-02-06T04:16:52.273Z,61.89
2023-02-06T04:19:55.875Z,62.34
2023-02-06T04:23:00.076Z,62.64
2023-02-06T04:26:03.632Z,62.40
2023-02-06T04:29:06.543Z,62.56
2023-02-06T04:32:09.990Z,62.75
2023-02-06T04:35:12.562Z,62.77
2023-02-06T04:38:15.182Z,62.49
2023-02-06T04:41:18.392Z,62.89
2023-02-06T04:44:21.819Z,62.49
2023-02-06T04:47:25.364Z,62.86
2023-02-06T04:50:31.454Z,63.51
2023-02-06T04:53:34.988Z,63.36
2023-02-06T04:56:38.483Z,63.03
2023-02-06T04:59:41.051Z,62.86
2023-02-06T05:02:43.689Z,62.00
2023-02-06T05:05:46.376Z,61.59
2023-02-06T05:08:48.867Z,62.08
2023-02-06T05:11:51.561Z,62.76
2023-02-06T05:14:55.498Z,60.93
2023-02-06T05:17:58.804Z,60.96
2023-02-06T05:21:04.397Z,59.95
2023-02-06T05:24:07.130Z,60.15
2023-02-06T05:27:09.769Z,60.30
2023-02-06T05:30:14.220Z,62.36
2023-02-06T05:33:18.979Z,60.79
2023-02-06T05:36:22.861Z,62.70
2023-02-06T05:39:25.625Z,64.19
2023-02-06T05:42:28.403Z,65.12
2023-02-06T05:45:31.052Z,61.75
2023-02-06T05:48:35.030Z,61.23
2023-02-06T05:51:37.796Z,61.70
2023-02-06T05:54:40.503Z,58.60
2023-02-06T05:57:44.759Z,61.93
2023-02-06T06:00:48.470Z,61.02
2023-02-06T06:03:52.265Z,59.11
2023-02-06T06:06:54.970Z,62.05
2023-02-06T06:09:58.567Z,61.58
2023-02-06T06:13:01.259Z,60.27
2023-02-06T06:16:04.416Z,60.24
2023-02-06T06:19:07.276Z,60.24
2023-02-06T06:22:11.538Z,59.90
2023-02-06T06:25:17.432Z,59.70
2023-02-06T06:28:21.088Z,59.55
2023-02-06T06:31:24.644Z,60.19
2023-02-06T06:34:28.051Z,59.41
2023-02-06T06:37:31.454Z,59.25
2023-02-06T06:40:35.067Z,57.76
2023-02-06T06:43:37.901Z,57.79
2023-02-06T06:46:42.393Z,57.66
2023-02-06T06:49:49.440Z,57.98
2023-02-06T06:52:52.137Z,57.78
2023-02-06T06:55:55.004Z,58.53
2023-02-06T06:58:59.575Z,57.57
2023-02-06T07:02:02.907Z,57.12
2023-02-06T07:05:07.528Z,56.89
2023-02-06T07:08:10.867Z,56.22
2023-02-06T07:11:15.278Z,56.04
2023-02-06T07:14:18.469Z,55.92
2023-02-06T07:17:21.314Z,56.26
2023-02-06T07:20:24.447Z,56.63
2023-02-06T07:23:28.588Z,56.68
2023-02-06T07:26:31.613Z,55.57
2023-02-06T07:29:35.911Z,55.21
2023-02-06T07:32:38.913Z,55.42
2023-02-06T07:35:42.105Z,55.21
2023-02-06T07:38:45.564Z,55.28
2023-02-06T07:41:50.452Z,54.58
2023-02-06T07:44:55.999Z,53.86
2023-02-06T07:47:59.318Z,53.83
2023-02-06T07:51:08.809Z,53.91
2023-02-06T07:55:09.640Z,53.12
2023-02-06T07:58:19.839Z,52.63
2023-02-06T08:01:23.795Z,51.39
2023-02-06T08:04:29.543Z,52.38
2023-02-06T08:07:32.500Z,50.97
2023-02-06T08:10:38.962Z,51.87
2023-02-06T08:13:43.037Z,51.34
2023-02-06T08:16:46.382Z,50.13
2023-02-06T08:19:51.532Z,50.28
2023-02-06T08:22:54.766Z,48.32
2023-02-06T08:26:13.691Z,48.57
2023-02-06T08:29:16.744Z,47.85
2023-02-06T08:32:25.751Z,48.60
2023-02-06T08:35:41.528Z,48.03
2023-02-06T08:39:01.053Z,48.10
2023-02-06T08:42:11.266Z,47.26
2023-02-06T08:45:55.665Z,46.72
2023-02-06T08:50:15.698Z,46.37
2023-02-06T08:53:30.296Z,46.03
2023-02-06T08:56:35.213Z,46.36
2023-02-06T08:59:38.731Z,46.30
2023-02-06T09:02:44.818Z,46.33
2023-02-06T09:05:52.677Z,46.62
2023-02-06T09:09:00.343Z,46.28
2023-02-06T09:12:04.458Z,46.53
2023-02-06T09:15:08.231Z,46.42
2023-02-06T09:18:12.279Z,46.07
2023-02-06T09:21:22.508Z,46.80
2023-02-06T09:24:27.478Z,45.86
2023-02-06T09:27:30.633Z,45.28
2023-02-06T09:30:33.820Z,46.07
2023-02-06T09:33:38.606Z,45.72
2023-02-06T09:36:41.686Z,45.52
2023-02-06T09:39:47.652Z,46.15
2023-02-06T09:42:53.731Z,45.93
2023-02-06T09:46:02.387Z,45.40
2023-02-06T09:49:20.395Z,45.42
2023-02-06T09:52:59.132Z,45.25
2023-02-06T09:56:28.219Z,44.94
2023-02-06T09:59:49.663Z,44.25
2023-02-06T10:03:25.938Z,45.19
2023-02-06T10:06:41.192Z,45.40
2023-02-06T10:09:52.834Z,46.07
2023-02-06T10:13:20.838Z,44.39
2023-02-06T10:16:36.390Z,46.00
2023-02-06T10:19:54.390Z,44.79
2023-02-06T10:22:57.881Z,44.33
2023-02-06T10:26:23.532Z,44.32
2023-02-06T10:29:50.879Z,44.01
2023-02-06T10:33:25.673Z,44.74
2023-02-06T10:37:02.703Z,44.22
2023-02-06T10:41:08.987Z,43.69
2023-02-06T10:44:53.012Z,42.99
2023-02-06T10:48:22.739Z,42.09
2023-02-06T10:52:01.691Z,43.86
2023-02-06T10:55:49.957Z,44.17
2023-02-06T10:59:05.979Z,44.03
2023-02-06T11:02:26.935Z,43.12
2023-02-06T11:05:32.313Z,40.82
2023-02-06T11:08:41.095Z,41.50
2023-02-06T11:11:49.731Z,40.91
2023-02-06T11:14:55.872Z,40.96
2023-02-06T11:18:07.031Z,40.77
2023-02-06T11:21:13.112Z,40.93
2023-02-06T11:24:17.845Z,41.31
2023-02-06T11:27:21.061Z,41.28
2023-02-06T11:30:33.694Z,41.29
2023-02-06T11:33:45.712Z,41.00
2023-02-06T11:36:53.437Z,40.14
2023-02-06T11:40:17.691Z,40.93
2023-02-06T11:43:23.986Z,41.24
2023-02-06T11:46:37.425Z,40.58
2023-02-06T11:49:40.682Z,40.00
2023-02-06T11:52:47.178Z,40.17
2023-02-06T11:56:06.733Z,41.08
2023-02-06T11:59:24.381Z,38.67
2023-02-06T12:02:40.574Z,39.26
2023-02-06T12:06:26.014Z,38.50
2023-02-06T12:09:49.865Z,38.98
2023-02-06T12:13:46.776Z,38.80
2023-02-06T12:16:53.385Z,38.30
2023-02-06T12:20:26.985Z,38.78
2023-02-06T12:23:53.602Z,39.54
2023-02-06T12:27:00.092Z,39.10
2023-02-06T12:30:44.317Z,38.75
2023-02-06T12:33:56.241Z,38.23
2023-02-06T12:37:18.529Z,38.24
2023-02-06T12:40:41.466Z,38.31
2023-02-06T12:43:56.320Z,37.86
2023-02-06T12:47:02.241Z,39.40
2023-02-06T12:50:40.144Z,38.20
2023-02-06T12:54:37.501Z,38.48
2023-02-06T12:57:55.109Z,38.45
2023-02-06T13:01:35.838Z,41.34
2023-02-06T13:04:54.937Z,39.64
2023-02-06T13:08:11.037Z,41.21
2023-02-06T13:11:28.797Z,40.15
2023-02-06T13:14:37.511Z,41.27
2023-02-06T13:17:43.062Z,40.74
2023-02-06T13:21:25.332Z,41.60
2023-02-06T13:24:33.092Z,42.47
2023-02-06T13:27:49.077Z,42.72
2023-02-06T13:30:58.732Z,42.30
2023-02-06T13:34:06.010Z,46.58
2023-02-06T13:37:42.549Z,43.24
2023-02-06T13:40:45.446Z,41.62
2023-02-06T13:43:55.554Z,41.81
2023-02-06T13:47:22.380Z,42.95
2023-02-06T13:50:36.557Z,41.13
2023-02-06T13:53:52.530Z,40.51
2023-02-06T13:57:08.568Z,42.16
2023-02-06T14:00:20.270Z,42.19
2023-02-06T14:03:28.585Z,41.69
2023-02-06T14:06:48.157Z,41.88
2023-02-06T14:10:30.236Z,41.88
2023-02-06T14:14:24.148Z,42.27
2023-02-06T14:18:02.052Z,42.22
2023-02-06T14:21:29.519Z,41.37
2023-02-06T14:24:58.641Z,41.84
2023-02-06T14:28:33.948Z,41.93
2023-02-06T14:32:00.846Z,42.69
2023-02-06T14:35:26.387Z,42.57
2023-02-06T14:38:43.959Z,42.55
2023-02-06T14:41:47.616Z,42.40
2023-02-06T14:45:03.841Z,42.47
2023-02-06T14:48:29.102Z,42.47
2023-02-06T14:51:58.358Z,42.29
2023-02-06T14:55:31.279Z,42.61
2023-02-06T14:58:34.848Z,43.22
2023-02-06T15:01:37.979Z,44.55
2023-02-06T15:04:48.042Z,43.73
2023-02-06T15:08:01.846Z,43.52
2023-02-06T15:11:07.080Z,43.91
2023-02-06T15:14:27.185Z,43.85
2023-02-06T15:17:31.746Z,43.88
2023-02-06T15:20:41.490Z,43.94
2023-02-06T15:24:20.875Z,43.89
2023-02-06T15:27:28.318Z,43.81
2023-02-06T15:30:37.502Z,43.99
2023-02-06T15:33:41.447Z,44.31
2023-02-06T15:36:44.278Z,44.85
2023-02-06T15:39:47.556Z,45.05
2023-02-06T15:42:51.453Z,44.67
2023-02-06T15:45:57.084Z,44.77
2023-02-06T15:48:59.892Z,44.92
2023-02-06T15:52:04.869Z,45.67
2023-02-06T15:55:25.763Z,45.75
2023-02-06T15:58:35.212Z,45.61
2023-02-06T16:01:42.227Z,46.16
2023-02-06T16:04:45.816Z,46.46
2023-02-06T16:07:52.229Z,47.03
2023-02-06T16:11:26.442Z,46.44
2023-02-06T16:14:40.978Z,46.90
2023-02-06T16:17:43.756Z,46.78
2023-02-06T16:20:46.804Z,48.02
2023-02-06T16:24:03.338Z,47.00
2023-02-06T16:27:27.892Z,47.57
2023-02-06T16:30:35.095Z,47.90
2023-02-06T16:33:44.356Z,47.72
2023-02-06T16:36:48.651Z,49.01
2023-02-06T16:39:53.270Z,47.89
2023-02-06T16:42:56.001Z,48.00
2023-02-06T16:46:02.358Z,47.79
2023-02-06T16:49:13.963Z,47.45
2023-02-06T16:52:25.866Z,47.45
2023-02-06T16:55:29.282Z,47.14
2023-02-06T16:58:34.937Z,47.25
2023-02-06T17:01:37.867Z,47.56
2023-02-06T17:04:41.680Z,48.38
2023-02-06T17:07:45.428Z,48.93
2023-02-06T17:10:48.370Z,49.01
2023-02-06T17:13:51.076Z,49.86
2023-02-06T17:16:55.343Z,49.72
2023-02-06T17:19:58.750Z,50.21
2023-02-06T17:23:03.110Z,49.68
2023-02-06T17:26:10.286Z,50.01
2023-02-06T17:29:14.419Z,49.94
2023-02-06T17:32:22.222Z,50.57
2023-02-06T17:35:25.407Z,51.32
2023-02-06T17:38:28.094Z,52.35
2023-02-06T17:41:31.377Z,51.82
2023-02-06T17:44:33.930Z,52.59
2023-02-06T17:47:36.722Z,51.91
2023-02-06T17:50:41.605Z,52.70
2023-02-06T17:53:45.910Z,51.98
2023-02-06T17:56:49.241Z,52.89
2023-02-06T17:59:53.745Z,53.52
2023-02-06T18:02:59.300Z,53.91
2023-02-06T18:06:02.816Z,54.45
2023-02-06T18:09:05.945Z,54.65
2023-02-06T18:12:09.961Z,55.48
2023-02-06T18:15:14.072Z,55.07
2023-02-06T18:18:16.772Z,54.58
2023-02-06T18:21:20.903Z,54.84
2023-02-06T18:24:23.796Z,54.97
2023-02-06T18:27:27.320Z,54.65
2023-02-06T18:30:30.975Z,55.72
2023-02-06T18:33:36.047Z,54.42
2023-02-06T18:36:38.759Z,55.64
2023-02-06T18:39:42.428Z,55.56
2023-02-06T18:42:53.520Z,55.63
2023-02-06T18:45:57.356Z,56.55
2023-02-06T18:49:00.790Z,56.36
2023-02-06T18:52:06.859Z,56.81
2023-02-06T18:55:10.554Z,57.48
2023-02-06T18:58:13.492Z,57.06
2023-02-06T19:01:20.928Z,58.12
2023-02-06T19:04:24.855Z,57.30
2023-02-06T19:07:28.746Z,56.85
2023-02-06T19:10:31.807Z,56.84
2023-02-06T19:13:34.807Z,55.93
2023-02-06T19:16:38.710Z,56.05
2023-02-06T19:19:41.518Z,57.19
2023-02-06T19:22:44.539Z,56.94
2023-02-06T19:25:48.317Z,57.72
2023-02-06T19:28:52.078Z,57.26
2023-02-06T19:31:54.890Z,57.20
2023-02-06T19:34:59.704Z,57.27
2023-02-06T19:38:03.542Z,57.19
2023-02-06T19:41:15.947Z,56.95
2023-02-06T19:44:19.056Z,55.59
2023-02-06T19:47:22.568Z,55.80
2023-02-06T19:50:25.500Z,56.10
2023-02-06T19:53:29.813Z,56.93
2023-02-06T19:56:40.690Z,56.40
2023-02-06T19:59:43.604Z,55.56
2023-02-06T20:02:46.458Z,55.92
2023-02-06T20:05:51.052Z,55.36
2023-02-06T20:08:54.128Z,56.87
2023-02-06T20:11:57.658Z,55.34
2023-02-06T20:15:01.698Z,57.45
2023-02-06T20:18:06.292Z,56.75
2023-02-06T20:21:27.941Z,58.21
2023-02-06T20:24:32.541Z,57.08
2023-02-06T20:27:35.381Z,56.42
2023-02-06T20:30:38.647Z,58.70
2023-02-06T20:33:42.967Z,56.84
2023-02-06T20:36:46.422Z,57.83
2023-02-06T20:39:49.548Z,57.16
2023-02-06T20:42:53.470Z,57.44
2023-02-06T20:45:57.051Z,57.87
2023-02-06T20:49:02.605Z,56.95
2023-02-06T20:52:06.631Z,59.80
2023-02-06T20:55:09.803Z,57.75
2023-02-06T20:58:13.764Z,59.45
2023-02-06T21:01:19.335Z,60.78
2023-02-06T21:04:22.942Z,61.37
2023-02-06T21:07:25.870Z,61.35
2023-02-06T21:10:30.734Z,62.05
2023-02-06T21:13:34.512Z,61.54
2023-02-06T21:16:38.379Z,62.63
2023-02-06T21:19:41.510Z,61.58
2023-02-06T21:22:44.944Z,62.67
2023-02-06T21:25:55.548Z,58.54
2023-02-06T21:28:59.564Z,62.91
2023-02-06T21:32:13.227Z,61.93
2023-02-06T21:35:17.594Z,61.14
2023-02-06T21:38:21.066Z,60.76
2023-02-06T21:41:24.157Z,60.84
2023-02-06T21:44:27.046Z,60.80
2023-02-06T21:47:30.448Z,61.82
2023-02-06T21:50:36.844Z,64.10
2023-02-06T21:53:40.158Z,65.20
2023-02-06T21:56:43.879Z,64.16
2023-02-06T21:59:46.516Z,66.15
2023-02-06T22:02:50.127Z,68.47
2023-02-06T22:05:54.535Z,67.79
2023-02-06T22:09:05.271Z,68.08
2023-02-06T22:12:08.801Z,67.92
2023-02-06T22:15:11.589Z,66.11
2023-02-06T22:18:15.039Z,65.34
2023-02-06T22:21:21.295Z,64.67
2023-02-06T22:24:24.635Z,64.44
2023-02-06T22:27:30.656Z,65.15
2023-02-06T22:30:33.414Z,64.65
2023-02-06T22:33:37.721Z,64.42
2023-02-06T22:36:41.054Z,65.65
2023-02-06T22:39:43.633Z,65.38
2023-02-06T22:42:47.057Z,64.96
2023-02-06T22:45:49.923Z,66.12
2023-02-06T22:48:54.434Z,64.95
2023-02-06T22:51:58.839Z,65.29
2023-02-06T22:55:04.236Z,65.40
2023-02-06T22:58:06.867Z,64.88
2023-02-06T23:01:09.963Z,65.19
2023-02-06T23:04:16.083Z,65.13
2023-02-06T23:07:18.679Z,65.37
2023-02-06T23:10:21.392Z,65.31
2023-02-06T23:13:24.022Z,64.68
2023-02-06T23:16:29.793Z,65.85
2023-02-06T23:19:32.496Z,65.58
2023-02-06T23:22:36.104Z,66.01
2023-02-06T23:25:44.605Z,66.90
2023-02-06T23:28:47.389Z,66.27
2023-02-06T23:31:50.788Z,66.43
2023-02-06T23:34:54.136Z,66.85
2023-02-06T23:37:57.668Z,67.38
2023-02-06T23:41:15.541Z,66.30
2023-02-06T23:44:19.174Z,66.42
2023-02-06T23:47:21.791Z,66.03
2023-02-06T23:50:26.264Z,65.65
2023-02-06T23:53:30.085Z,65.18
2023-02-06T23:56:33.220Z,65.09
2023-02-06T23:59:36.703Z,64.85
